Flight Track Log - Related Links

Times and Time Zones

All times are in EDT time to prevent confusion due to time zone crossing. See the RPA3392 flight status page for this flight to view local times or setup timezone preferences in your user account.

Time Position Orientation Groundspeed Altitude Reporting Facility
EDT Latitude Longitude Course Direction KTS MPH feet Rate Location/Type
Sat 01:29:04 AM 38.8000 -77.0333 142° Southeast 171 197 1,800  Level Potomac TRACON
Sat 01:29:52 AM 38.7667 -77.0000 142° Southeast 217 250 3,600 2,068 Climbing Potomac TRACON
Sat 01:31:32 AM 38.8314 -76.8733 57° Northeast 269 310 6,900 2,571 Climbing Washington Center
Sat 01:32:33 AM 38.8783 -76.7836 56° Northeast 290 334 10,500 3,203 Climbing Washington Center
Sat 01:33:30 AM 38.9208 -76.6936 59° Northeast 295 339 13,200 1,653 Climbing Washington Center
Sat 01:38:36 AM 39.2540 -76.0970 59° Northeast 437 503 20,500 1,277 Climbing FlightAware ADS-B
Sat 01:39:13 AM 39.2930 -76.0310 53° Northeast 437 503 20,500  Level FlightAware ADS-B
Sat 01:40:01 AM 39.3420 -75.9460 53° Northeast 437 503 20,500  Level FlightAware ADS-B
Sat 01:41:02 AM 39.4050 -75.8380 53° Northeast 437 503 20,500  Level FlightAware ADS-B
Sat 01:41:36 AM 39.4410 -75.7770 53° Northeast 437 503 20,500 3,708 Level FlightAware ADS-B
Sat 01:42:31 AM 39.5594 -75.5753 53° Northeast 471 542 26,000 2,635 Climbing Washington Center
Sat 01:44:04 AM 39.6956 -75.3414 53° Northeast 472 543 27,000 392 Climbing New York Center
Sat 01:45:04 AM 39.7828 -75.1875 54° Northeast 504 580 27,000  Level New York Center
Sat 01:46:03 AM 39.8522 -75.0567 55° Northeast 529 609 27,000  Level New York Center
Sat 01:47:04 AM 39.9589 -74.8736 53° Northeast 529 609 27,000  Level New York Center
Sat 01:48:03 AM 40.0364 -74.7400 53° Northeast 524 603 27,000  Level New York Center
Sat 01:49:03 AM 40.1733 -74.6364 30° Northeast 502 578 27,000  Level New York Center
Sat 01:50:04 AM 40.2997 -74.5917 15° North 493 567 27,000  Level New York Center
Sat 01:51:03 AM 40.4386 -74.5506 13° North 498 573 27,000  Level New York Center
Sat 01:52:37 AM 40.6564 -74.4836 13° North 499 574 27,000  Level Boston Center
Sat 01:53:37 AM 40.7947 -74.4386 14° North 504 580 27,000  Level Boston Center
Sat 01:54:37 AM 40.9331 -74.3908 15° North 504 580 27,000  Level Boston Center
Sat 01:55:37 AM 41.0922 -74.3486 11° North 514 592 27,000  Level Boston Center
Sat 01:56:37 AM 41.2306 -74.3031 14° North 509 586 27,000  Level Boston Center
Sat 01:57:37 AM 41.3625 -74.2572 15° North 493 567 27,000 -500 Level Boston Center
Sat 01:58:37 AM 41.5050 -74.2114 14° North 493 567 26,000 -2,150 Descending Boston Center
Sat 01:59:37 AM 41.6433 -74.1653 14° North 508 585 22,700 -3,100 Descending Boston Center
Sat 02:00:37 AM 41.7647 -74.1294 12° North 489 563 19,800 -2,850 Descending Boston Center
Sat 02:01:37 AM 41.8842 -74.0881 14° North 446 513 17,000 -2,300 Descending Boston Center
Sat 02:02:37 AM 41.9867 -74.0572 13° North 427 491 15,200 -2,100 Descending Boston Center
Sat 02:03:37 AM 42.0975 -74.0208 14° North 407 468 12,800 -2,100 Descending Boston Center
Sat 02:04:37 AM 42.2131 -73.9678 19° North 402 463 11,000 -1,250 Descending Boston Center
Sat 02:05:37 AM 42.2969 -73.9250 21° North 372 428 10,300 -1,350 Descending Boston Center
Sat 02:06:37 AM 42.3914 -73.8794 20° North 332 382 8,300 -1,900 Descending Boston Center
Sat 02:07:37 AM 42.4625 -73.8444 20° North 309 356 6,500 -1,850 Descending Boston Center
Sat 02:08:37 AM 42.5422 -73.8039 21° North 287 330 4,600 -1,700 Descending Boston Center
Sat 02:09:37 AM 42.6069 -73.8025 North 261 300 3,100 -1,463 Descending Boston Center
Sat 02:10:40 AM 42.6672 -73.8039 359° North 172 198 1,600 -1,132 Descending Boston Center
Sat 02:11:23 AM 42.6944 -73.8044 359° North 142 163 1,100 -698 Descending Boston Center

Login

Don't have an account? Register now (free) for customized features, flight alerts, and more!